Time;durP1;ratioP1;P1;durP2;ratioP2;P2;SDS_P1;SDS_P2;PMS_P1;PMS_P2;Temp;Humidity;BMP_temperature;BMP_pressure;BME280_temperature;BME280_humidity;BME280_pressure;Samples;Min_cycle;Max_cycle;Signal;HPM_P1;HPM_P2
2021/07/03 00:00:56;;;;;;;11.80;7.90;;;19.90;78.40;;;;;;5030610;28;20023;-67
2021/07/03 00:03:22;;;;;;;11.70;8.02;;;19.90;78.40;;;;;;5031781;28;20075;-66
2021/07/03 00:05:47;;;;;;;13.68;7.95;;;19.90;78.40;;;;;;5030465;28;20067;-66
2021/07/03 00:08:13;;;;;;;11.00;7.70;;;19.80;78.20;;;;;;5029357;28;20044;-66
2021/07/03 00:10:39;;;;;;;10.13;7.60;;;19.80;78.30;;;;;;5031246;28;20095;-66
2021/07/03 00:13:04;;;;;;;10.77;7.63;;;19.80;78.30;;;;;;5030126;28;20495;-66
2021/07/03 00:15:30;;;;;;;12.48;7.63;;;19.80;78.30;;;;;;5030955;28;20033;-67
2021/07/03 00:17:57;;;;;;;12.23;8.13;;;19.80;78.20;;;;;;5031169;28;20466;-67
2021/07/03 00:20:24;;;;;;;11.23;7.57;;;19.80;78.20;;;;;;5031661;28;20060;-66
2021/07/03 00:22:49;;;;;;;12.27;8.30;;;19.80;78.10;;;;;;5030962;28;20025;-66
2021/07/03 00:25:15;;;;;;;10.55;8.18;;;19.80;78.00;;;;;;5012002;28;20033;-66
2021/07/03 00:27:41;;;;;;;11.68;7.88;;;19.80;78.00;;;;;;5011511;28;20116;-67
2021/07/03 00:30:08;;;;;;;10.73;8.30;;;19.80;78.10;;;;;;5011937;28;20483;-66
2021/07/03 00:32:34;;;;;;;9.45;7.82;;;19.80;78.00;;;;;;5011819;28;21009;-66
2021/07/03 00:35:00;;;;;;;11.48;8.32;;;19.80;77.90;;;;;;5023053;28;20080;-66
2021/07/03 00:37:26;;;;;;;11.38;8.32;;;19.80;77.90;;;;;;5010149;28;20026;-66
2021/07/03 00:39:51;;;;;;;11.05;7.55;;;19.80;77.90;;;;;;5011794;28;20026;-67
2021/07/03 00:42:17;;;;;;;12.57;8.32;;;19.80;77.80;;;;;;5011768;28;20123;-67
2021/07/03 00:44:42;;;;;;;11.57;8.48;;;19.80;77.80;;;;;;5013062;28;20032;-67
2021/07/03 00:47:09;;;;;;;13.35;9.40;;;19.70;77.70;;;;;;5028632;28;20029;-69
2021/07/03 00:49:38;;;;;;;10.98;8.57;;;19.70;77.70;;;;;;5010308;28;20084;-66
2021/07/03 00:52:05;;;;;;;13.70;9.13;;;19.80;77.70;;;;;;5010377;28;20036;-66
2021/07/03 00:54:33;;;;;;;13.07;9.15;;;19.70;77.60;;;;;;5010412;28;20026;-66
2021/07/03 00:57:01;;;;;;;13.45;8.95;;;19.70;77.50;;;;;;5026162;28;20033;-68
2021/07/03 00:59:35;;;;;;;12.82;9.48;;;19.70;77.50;;;;;;5030828;28;20025;-66
2021/07/03 01:02:02;;;;;;;13.23;9.38;;;19.70;77.40;;;;;;5017039;28;20096;-66
2021/07/03 01:04:28;;;;;;;13.18;9.60;;;19.70;77.50;;;;;;5010317;28;20471;-66
2021/07/03 01:06:54;;;;;;;11.75;9.25;;;19.70;77.50;;;;;;5019477;28;20514;-66
2021/07/03 01:09:20;;;;;;;11.45;9.30;;;19.70;77.40;;;;;;5010106;28;20030;-67
2021/07/03 01:11:45;;;;;;;12.98;8.70;;;19.70;77.40;;;;;;5009727;28;20033;-67
2021/07/03 01:14:11;;;;;;;11.75;8.60;;;19.70;77.40;;;;;;5010773;28;20450;-66
2021/07/03 01:16:36;;;;;;;11.23;8.85;;;19.70;77.40;;;;;;5011574;28;20096;-67
2021/07/03 01:19:02;;;;;;;13.60;9.00;;;19.70;77.40;;;;;;5013890;28;20057;-67
2021/07/03 01:21:29;;;;;;;12.77;10.05;;;19.70;77.30;;;;;;5030427;28;20116;-68
2021/07/03 01:23:55;;;;;;;13.40;10.00;;;19.60;77.20;;;;;;5022138;28;20029;-67
2021/07/03 01:26:21;;;;;;;12.40;9.25;;;19.70;77.30;;;;;;5014415;28;20045;-66
2021/07/03 01:28:47;;;;;;;11.52;8.82;;;19.70;77.20;;;;;;5029859;28;20028;-66
2021/07/03 01:31:13;;;;;;;11.52;8.95;;;19.70;77.20;;;;;;5032247;28;20036;-66
2021/07/03 01:33:39;;;;;;;15.05;8.90;;;19.60;77.20;;;;;;5032768;28;20068;-66
2021/07/03 01:36:05;;;;;;;13.00;8.90;;;19.60;77.20;;;;;;5033863;28;20029;-66
2021/07/03 01:38:30;;;;;;;12.02;9.13;;;19.60;77.20;;;;;;5017854;28;20029;-67
2021/07/03 01:40:56;;;;;;;12.10;9.20;;;19.60;77.20;;;;;;5013972;28;20530;-67
2021/07/03 01:43:24;;;;;;;10.88;8.68;;;19.60;77.30;;;;;;5014998;28;20376;-68
2021/07/03 01:45:51;;;;;;;13.38;10.23;;;19.60;77.10;;;;;;5013570;28;20030;-66
2021/07/03 01:48:25;;;;;;;12.60;9.80;;;19.60;77.20;;;;;;5013621;28;20034;-67
2021/07/03 01:50:51;;;;;;;11.68;9.15;;;19.60;77.20;;;;;;5013931;28;20032;-67
2021/07/03 01:53:17;;;;;;;12.73;10.15;;;19.60;77.20;;;;;;5019341;28;20037;-67
2021/07/03 01:55:42;;;;;;;12.70;9.90;;;19.60;77.70;;;;;;5018174;28;20116;-67
2021/07/03 01:58:08;;;;;;;12.15;9.20;;;19.60;77.20;;;;;;5031148;28;20092;-67
2021/07/03 02:00:33;;;;;;;12.25;9.25;;;19.60;77.10;;;;;;5032972;28;20029;-67
2021/07/03 02:02:59;;;;;;;12.63;9.65;;;19.60;77.10;;;;;;5032813;28;20021;-67
2021/07/03 02:05:24;;;;;;;12.48;10.13;;;19.60;77.00;;;;;;5033052;28;20033;-67
2021/07/03 02:07:50;;;;;;;13.65;10.27;;;19.60;77.00;;;;;;5032591;28;20033;-67
2021/07/03 02:10:15;;;;;;;13.75;9.85;;;19.50;76.90;;;;;;5031529;28;20025;-67
2021/07/03 02:12:41;;;;;;;12.65;9.88;;;19.50;76.90;;;;;;5033271;28;20041;-68
2021/07/03 02:15:08;;;;;;;11.98;9.43;;;19.50;76.90;;;;;;5032597;28;20036;-67
2021/07/03 02:17:34;;;;;;;14.32;10.23;;;19.60;76.90;;;;;;5032823;28;20044;-67
2021/07/03 02:20:00;;;;;;;12.80;10.13;;;19.50;76.80;;;;;;5029839;28;20463;-68
2021/07/03 02:22:25;;;;;;;12.88;9.90;;;19.50;76.80;;;;;;5031217;28;20018;-68
2021/07/03 02:24:51;;;;;;;11.52;9.13;;;19.50;76.80;;;;;;5032947;28;20100;-67
2021/07/03 02:27:16;;;;;;;12.98;9.38;;;19.50;76.70;;;;;;5032635;28;20025;-67
2021/07/03 02:29:42;;;;;;;11.95;10.02;;;19.50;76.80;;;;;;5030702;28;20041;-65
2021/07/03 02:32:08;;;;;;;14.63;9.20;;;19.50;76.70;;;;;;5032945;28;20025;-67
2021/07/03 02:34:33;;;;;;;12.38;9.05;;;19.50;76.80;;;;;;5031691;28;20029;-67
2021/07/03 02:36:59;;;;;;;11.85;8.70;;;19.50;76.70;;;;;;5031025;28;20037;-67
2021/07/03 02:39:25;;;;;;;13.13;9.85;;;19.40;76.80;;;;;;5017441;28;20487;-67
2021/07/03 02:41:50;;;;;;;12.38;9.10;;;19.40;76.90;;;;;;5011509;28;20026;-67
2021/07/03 02:44:16;;;;;;;13.50;8.80;;;19.50;76.80;;;;;;5012454;28;20029;-67
2021/07/03 02:46:42;;;;;;;11.20;8.80;;;19.50;77.20;;;;;;5012885;28;20034;-67
2021/07/03 02:49:07;;;;;;;12.00;8.90;;;19.40;77.20;;;;;;5023145;28;20028;-67
2021/07/03 02:51:33;;;;;;;12.50;9.25;;;19.40;77.20;;;;;;5032200;28;20026;-66
2021/07/03 02:53:58;;;;;;;12.27;8.38;;;19.40;77.30;;;;;;5025132;28;20057;-68
2021/07/03 02:56:24;;;;;;;12.75;9.27;;;19.40;77.40;;;;;;5031194;28;20029;-66
2021/07/03 02:58:49;;;;;;;10.63;8.27;;;19.40;77.40;;;;;;5031340;28;20035;-67
2021/07/03 03:01:15;;;;;;;11.20;8.43;;;19.40;77.60;;;;;;5031636;28;20109;-67
2021/07/03 03:03:43;;;;;;;12.32;8.07;;;19.40;77.50;;;;;;5031908;28;20025;-67
2021/07/03 03:06:13;;;;;;;10.70;7.55;;;19.40;77.60;;;;;;5032295;28;20053;-66
2021/07/03 03:08:39;;;;;;;11.32;7.90;;;19.40;77.40;;;;;;5028089;28;20552;-67
2021/07/03 03:11:04;;;;;;;13.00;8.75;;;19.40;77.70;;;;;;5010480;28;20038;-67
2021/07/03 03:13:30;;;;;;;11.13;7.93;;;19.40;77.50;;;;;;5014386;28;20037;-67
2021/07/03 03:15:55;;;;;;;12.30;8.00;;;19.40;77.80;;;;;;5029808;28;20056;-66
2021/07/03 03:18:21;;;;;;;11.38;8.40;;;19.40;77.70;;;;;;5017448;28;20022;-68
2021/07/03 03:20:46;;;;;;;10.93;7.95;;;19.40;77.60;;;;;;5010841;28;20022;-66
2021/07/03 03:23:12;;;;;;;10.98;7.45;;;19.40;77.50;;;;;;5011655;28;20492;-66
2021/07/03 03:25:37;;;;;;;11.13;8.13;;;19.40;77.60;;;;;;5028498;28;20036;-67
2021/07/03 03:28:03;;;;;;;10.90;7.60;;;19.40;77.50;;;;;;5030187;28;20021;-68
2021/07/03 03:30:29;;;;;;;11.98;8.38;;;19.40;77.40;;;;;;5017348;28;20055;-67
2021/07/03 03:32:54;;;;;;;10.25;7.60;;;19.40;77.30;;;;;;5010904;28;20084;-66
2021/07/03 03:35:20;;;;;;;10.65;7.68;;;19.40;77.10;;;;;;5010554;28;20481;-66
2021/07/03 03:37:46;;;;;;;12.50;8.00;;;19.40;77.20;;;;;;5011216;28;20021;-66
2021/07/03 03:40:12;;;;;;;11.25;7.70;;;19.40;77.10;;;;;;5011911;28;20438;-66
2021/07/03 03:42:37;;;;;;;12.25;8.07;;;19.40;77.00;;;;;;5016965;28;20402;-66
2021/07/03 03:45:07;;;;;;;12.13;8.18;;;19.40;77.00;;;;;;5030808;28;20029;-67
2021/07/03 03:47:32;;;;;;;10.98;7.55;;;19.40;76.90;;;;;;5029557;28;20457;-66
2021/07/03 03:49:58;;;;;;;11.15;7.88;;;19.40;76.80;;;;;;5030181;28;20125;-68
2021/07/03 03:52:24;;;;;;;12.43;7.70;;;19.30;76.80;;;;;;5028311;28;20065;-67
2021/07/03 03:54:49;;;;;;;12.07;7.78;;;19.40;76.80;;;;;;5025887;28;20656;-66
2021/07/03 03:57:30;;;;;;;11.77;7.55;;;19.40;76.60;;;;;;5036141;28;20030;-66
2021/07/03 03:59:58;;;;;;;10.73;7.47;;;19.40;76.50;;;;;;5029249;28;20021;-67
2021/07/03 04:02:24;;;;;;;12.25;7.75;;;19.40;76.40;;;;;;5030560;28;20397;-67
2021/07/03 04:04:50;;;;;;;10.02;7.30;;;19.40;76.40;;;;;;5031036;28;20090;-67
2021/07/03 04:07:17;;;;;;;10.48;6.93;;;19.40;76.30;;;;;;5027632;28;20111;-67
2021/07/03 04:09:43;;;;;;;10.95;7.63;;;19.40;76.20;;;;;;5030507;28;20033;-66
2021/07/03 04:12:08;;;;;;;11.68;8.10;;;19.40;76.10;;;;;;5030342;28;20052;-68
2021/07/03 04:14:34;;;;;;;13.45;7.95;;;19.40;76.00;;;;;;5030627;28;20073;-67
2021/07/03 04:17:00;;;;;;;12.20;7.88;;;19.40;75.90;;;;;;5031097;28;20029;-66
2021/07/03 04:19:25;;;;;;;11.52;7.78;;;19.30;76.30;;;;;;5030772;28;20522;-66
2021/07/03 04:21:51;;;;;;;12.73;7.78;;;19.40;75.80;;;;;;5026987;28;20441;-68
2021/07/03 04:24:16;;;;;;;12.80;7.38;;;19.40;75.70;;;;;;5029669;28;20024;-66
2021/07/03 04:26:42;;;;;;;10.02;6.97;;;19.40;75.60;;;;;;5029665;28;20112;-66
2021/07/03 04:29:07;;;;;;;10.80;7.50;;;19.40;75.70;;;;;;5029564;28;20040;-66
2021/07/03 04:31:33;;;;;;;12.32;7.50;;;19.40;75.60;;;;;;5030953;28;20029;-66
2021/07/03 04:33:58;;;;;;;11.52;8.60;;;19.40;75.40;;;;;;5029672;28;20029;-66
2021/07/03 04:36:24;;;;;;;11.35;8.05;;;19.40;75.50;;;;;;5024475;28;20037;-66
2021/07/03 04:38:49;;;;;;;10.48;7.43;;;19.40;75.40;;;;;;5010729;28;20422;-67
2021/07/03 04:41:15;;;;;;;12.38;7.85;;;19.40;75.30;;;;;;5008589;28;20037;-66
2021/07/03 04:43:40;;;;;;;11.88;8.80;;;19.40;75.30;;;;;;5009994;28;20538;-66
2021/07/03 04:46:06;;;;;;;12.07;8.38;;;19.40;75.30;;;;;;5013804;28;20030;-67
2021/07/03 04:48:31;;;;;;;12.23;8.20;;;19.50;75.30;;;;;;5029294;28;20132;-67
2021/07/03 04:50:57;;;;;;;11.25;7.95;;;19.50;75.30;;;;;;5028761;28;20589;-66
2021/07/03 04:53:22;;;;;;;12.32;9.13;;;19.50;75.50;;;;;;5027355;28;20395;-66
2021/07/03 04:55:48;;;;;;;13.02;8.85;;;19.50;75.20;;;;;;5021910;28;20029;-68
2021/07/03 04:58:13;;;;;;;13.32;8.52;;;19.50;75.10;;;;;;5030069;28;20478;-66
2021/07/03 05:00:39;;;;;;;11.55;8.13;;;19.60;75.10;;;;;;5030417;28;20029;-66
2021/07/03 05:03:04;;;;;;;11.52;7.82;;;19.50;75.10;;;;;;5043363;28;20086;-67
2021/07/03 05:05:30;;;;;;;10.55;7.97;;;19.60;75.10;;;;;;5022827;28;20478;-68
2021/07/03 05:07:55;;;;;;;10.73;7.78;;;19.60;75.00;;;;;;5030403;28;20516;-67
2021/07/03 05:10:21;;;;;;;12.02;8.07;;;19.60;74.90;;;;;;5030707;28;20033;-66
2021/07/03 05:12:47;;;;;;;13.73;8.32;;;19.60;74.70;;;;;;5026503;28;20030;-69
2021/07/03 05:15:13;;;;;;;12.95;8.27;;;19.60;74.90;;;;;;5010285;28;20070;-67
2021/07/03 05:17:38;;;;;;;11.02;8.15;;;19.70;75.20;;;;;;5040814;28;20121;-67
2021/07/03 05:20:07;;;;;;;11.57;8.63;;;19.70;75.20;;;;;;5034439;28;20877;-69
2021/07/03 05:22:32;;;;;;;13.07;8.55;;;19.70;75.20;;;;;;5028197;28;20030;-67
2021/07/03 05:24:58;;;;;;;13.65;8.05;;;19.70;75.30;;;;;;5027590;28;20033;-68
2021/07/03 05:27:23;;;;;;;12.27;8.00;;;19.70;75.20;;;;;;5034383;28;20013;-67
2021/07/03 05:29:49;;;;;;;12.13;8.18;;;19.70;75.40;;;;;;5046152;28;20029;-67
2021/07/03 05:32:14;;;;;;;12.38;8.10;;;19.70;75.30;;;;;;5034298;28;20111;-67
2021/07/03 05:34:40;;;;;;;11.60;8.23;;;19.70;75.40;;;;;;5031338;28;20049;-69
2021/07/03 05:37:06;;;;;;;12.10;8.23;;;19.70;75.30;;;;;;5036319;28;20065;-66
2021/07/03 05:39:32;;;;;;;14.88;8.85;;;19.70;75.40;;;;;;5025854;28;20191;-71
2021/07/03 05:41:58;;;;;;;11.00;8.27;;;19.80;75.80;;;;;;5043333;28;20533;-68
2021/07/03 05:44:24;;;;;;;12.40;8.68;;;19.80;75.50;;;;;;5046020;28;20066;-67
2021/07/03 05:46:50;;;;;;;11.40;8.18;;;19.80;75.90;;;;;;5047204;28;20070;-67
2021/07/03 05:49:19;;;;;;;15.98;8.93;;;19.80;75.50;;;;;;5044020;28;20074;-68
2021/07/03 05:51:45;;;;;;;13.82;8.25;;;19.90;76.30;;;;;;5033409;28;20033;-66
2021/07/03 05:54:11;;;;;;;13.00;8.75;;;19.90;75.40;;;;;;5026643;28;20025;-67
2021/07/03 05:56:37;;;;;;;12.18;9.07;;;20.00;75.90;;;;;;5024312;28;20025;-67
2021/07/03 05:59:03;;;;;;;14.30;9.27;;;20.00;75.90;;;;;;5024814;28;20021;-66
2021/07/03 06:01:28;;;;;;;13.30;8.85;;;20.00;75.70;;;;;;5025623;28;20029;-67
2021/07/03 06:03:54;;;;;;;13.27;8.60;;;20.00;75.60;;;;;;5024966;28;20414;-67
2021/07/03 06:06:20;;;;;;;13.23;9.15;;;20.10;75.40;;;;;;5026565;28;20062;-66
2021/07/03 06:08:46;;;;;;;14.00;9.60;;;20.20;75.30;;;;;;5025619;28;20033;-66
2021/07/03 06:11:12;;;;;;;11.20;8.07;;;20.20;74.30;;;;;;5027387;28;20490;-68
2021/07/03 06:13:38;;;;;;;12.93;8.40;;;20.30;74.70;;;;;;5026808;28;20033;-69
2021/07/03 06:16:04;;;;;;;12.35;8.38;;;20.40;73.60;;;;;;5025778;28;20033;-66
2021/07/03 06:18:30;;;;;;;13.77;8.40;;;20.50;73.80;;;;;;5021443;28;20029;-65
2021/07/03 06:20:56;;;;;;;12.98;9.10;;;20.50;72.40;;;;;;5023918;28;20029;-68
2021/07/03 06:23:23;;;;;;;14.05;7.88;;;20.60;72.80;;;;;;5020855;28;20056;-66
2021/07/03 06:25:49;;;;;;;20.83;9.63;;;20.60;71.90;;;;;;5019094;28;20037;-68
2021/07/03 06:28:14;;;;;;;18.83;9.50;;;20.70;72.80;;;;;;5017238;28;20025;-68
2021/07/03 06:30:40;;;;;;;13.45;9.15;;;20.80;71.60;;;;;;5010907;28;20026;-67
2021/07/03 06:33:05;;;;;;;13.48;8.50;;;20.90;71.70;;;;;;5038849;28;20026;-64
2021/07/03 06:35:31;;;;;;;14.13;9.40;;;20.90;71.20;;;;;;5013973;28;20065;-67
2021/07/03 06:37:56;;;;;;;13.40;10.13;;;21.00;71.50;;;;;;5013932;28;20068;-66
2021/07/03 06:40:22;;;;;;;13.70;9.15;;;21.10;71.10;;;;;;5024312;28;20029;-67
2021/07/03 06:42:48;;;;;;;13.02;8.82;;;21.10;70.90;;;;;;5020030;28;20445;-69
2021/07/03 06:45:13;;;;;;;13.35;8.95;;;21.20;70.30;;;;;;5005004;28;20026;-67
2021/07/03 06:47:39;;;;;;;17.98;9.00;;;21.20;70.80;;;;;;5013499;28;20367;-68
2021/07/03 06:50:06;;;;;;;13.40;9.30;;;21.30;70.70;;;;;;5024413;28;20040;-66
2021/07/03 06:52:31;;;;;;;13.07;8.95;;;21.30;69.90;;;;;;5025962;28;20033;-67
2021/07/03 06:54:57;;;;;;;13.02;8.68;;;21.40;70.10;;;;;;5026125;28;20032;-66
2021/07/03 06:57:22;;;;;;;12.65;8.63;;;21.40;69.60;;;;;;5016641;28;20036;-67
2021/07/03 06:59:48;;;;;;;14.77;9.48;;;21.50;69.60;;;;;;5027901;28;20555;-67
2021/07/03 07:02:13;;;;;;;11.80;7.93;;;21.50;69.70;;;;;;5035065;28;20021;-67
2021/07/03 07:04:39;;;;;;;15.98;9.07;;;21.50;69.20;;;;;;5039642;28;20032;-69
2021/07/03 07:07:04;;;;;;;14.30;8.57;;;21.60;69.20;;;;;;5026118;28;20115;-65
2021/07/03 07:09:30;;;;;;;14.77;9.18;;;21.70;69.30;;;;;;5025767;28;20486;-69
2021/07/03 07:11:57;;;;;;;15.27;9.43;;;21.80;69.10;;;;;;5023948;28;20037;-68
2021/07/03 07:14:23;;;;;;;16.80;8.43;;;21.80;69.20;;;;;;5024678;28;20116;-66
2021/07/03 07:16:49;;;;;;;15.40;8.80;;;21.90;68.90;;;;;;5029145;28;20035;-66
2021/07/03 07:19:15;;;;;;;13.38;8.25;;;21.80;68.60;;;;;;5044955;28;20033;-66
2021/07/03 07:21:40;;;;;;;14.23;8.50;;;21.90;68.90;;;;;;5030640;28;20029;-68
2021/07/03 07:24:06;;;;;;;11.45;7.82;;;21.90;69.10;;;;;;5026529;28;20033;-67
2021/07/03 07:26:33;;;;;;;15.50;8.27;;;22.00;68.00;;;;;;5025960;28;20021;-67
2021/07/03 07:28:58;;;;;;;11.30;7.35;;;22.00;68.40;;;;;;5028367;28;20036;-66
2021/07/03 07:31:24;;;;;;;19.02;9.43;;;22.10;68.00;;;;;;5022798;28;20034;-67
2021/07/03 07:33:50;;;;;;;15.15;8.30;;;22.10;67.90;;;;;;5019462;28;20763;-66
2021/07/03 07:36:16;;;;;;;17.10;8.40;;;22.20;68.40;;;;;;5026854;28;20167;-67
2021/07/03 07:38:42;;;;;;;14.10;8.98;;;22.30;67.00;;;;;;5022649;28;20025;-66
2021/07/03 07:41:08;;;;;;;13.30;7.93;;;22.30;67.20;;;;;;5017552;28;21394;-67
2021/07/03 07:43:34;;;;;;;18.45;9.48;;;22.30;66.80;;;;;;5023056;28;20026;-67
2021/07/03 07:46:00;;;;;;;14.55;9.43;;;22.20;67.70;;;;;;5026004;28;20166;-67
2021/07/03 07:48:28;;;;;;;13.18;7.40;;;22.20;68.30;;;;;;5042434;28;20029;-67
2021/07/03 07:50:56;;;;;;;13.32;7.88;;;22.20;67.60;;;;;;5041530;28;20428;-67
2021/07/03 07:53:23;;;;;;;11.70;8.15;;;22.30;68.30;;;;;;5040930;28;20482;-66
2021/07/03 07:55:48;;;;;;;12.40;7.53;;;22.30;67.60;;;;;;5036405;28;20038;-66
2021/07/03 07:58:14;;;;;;;14.07;8.45;;;22.10;67.60;;;;;;5027242;28;20024;-66
2021/07/03 08:00:40;;;;;;;11.45;8.02;;;21.90;68.60;;;;;;5043732;28;20094;-68
2021/07/03 08:03:06;;;;;;;13.65;8.88;;;21.80;69.20;;;;;;5041499;28;20025;-68
2021/07/03 08:05:31;;;;;;;13.40;9.98;;;21.90;69.60;;;;;;5042424;28;20550;-67
2021/07/03 08:07:57;;;;;;;18.40;13.65;;;21.90;69.30;;;;;;5042951;28;20029;-65
2021/07/03 08:10:27;;;;;;;23.15;14.50;;;21.90;69.30;;;;;;5043180;28;20029;-67
2021/07/03 08:12:55;;;;;;;19.90;14.68;;;21.80;69.80;;;;;;5042460;28;20557;-67
2021/07/03 08:15:21;;;;;;;15.38;11.30;;;21.90;68.80;;;;;;5042162;28;20033;-67
2021/07/03 08:17:47;;;;;;;16.00;10.98;;;22.10;67.70;;;;;;5042679;28;20033;-67
2021/07/03 08:20:19;;;;;;;15.55;11.35;;;22.30;66.60;;;;;;5034055;28;20029;-69
2021/07/03 08:22:46;;;;;;;14.80;10.93;;;22.30;66.40;;;;;;5016374;28;20034;-67
2021/07/03 08:25:12;;;;;;;14.93;11.10;;;22.30;66.80;;;;;;5016885;28;20022;-68
2021/07/03 08:27:38;;;;;;;16.50;11.90;;;22.30;66.80;;;;;;5014850;28;20119;-67
2021/07/03 08:30:05;;;;;;;15.07;10.73;;;22.30;66.60;;;;;;5006033;28;20030;-66
2021/07/03 08:32:31;;;;;;;16.58;11.30;;;22.20;67.00;;;;;;5010706;28;20036;-69
2021/07/03 08:34:57;;;;;;;18.67;12.45;;;22.00;68.60;;;;;;5030717;28;20399;-70
2021/07/03 08:37:23;;;;;;;17.30;13.00;;;21.90;68.70;;;;;;5029200;28;20170;-67
2021/07/03 08:39:49;;;;;;;18.45;11.85;;;21.70;68.70;;;;;;5035616;28;20541;-73
2021/07/03 08:42:14;;;;;;;19.23;11.88;;;21.70;69.00;;;;;;5044527;28;20029;-67
2021/07/03 08:44:48;;;;;;;17.20;10.00;;;21.70;69.10;;;;;;5046807;28;20025;-66
2021/07/03 08:47:15;;;;;;;25.25;12.98;;;21.90;68.70;;;;;;5045390;28;20013;-68
2021/07/03 08:49:42;;;;;;;66.20;27.23;;;22.00;67.80;;;;;;5035524;28;20033;-66
2021/07/03 08:52:08;;;;;;;347.70;103.53;;;22.00;68.00;;;;;;5016629;28;20072;-68
2021/07/03 08:54:33;;;;;;;204.95;65.32;;;22.00;69.20;;;;;;5012770;28;20033;-66
2021/07/03 08:57:00;;;;;;;209.63;65.53;;;22.30;68.10;;;;;;5012713;28;20034;-66
2021/07/03 08:59:27;;;;;;;382.25;118.63;;;22.40;66.90;;;;;;5028345;28;20112;-66
2021/07/03 09:01:55;;;;;;;256.95;80.60;;;22.30;67.80;;;;;;5022236;28;20060;-66
2021/07/03 09:04:40;;;;;;;211.02;66.65;;;22.10;68.00;;;;;;5031487;28;20032;-66
2021/07/03 09:07:21;;;;;;;159.40;56.38;;;21.90;68.50;;;;;;5044931;28;20029;-65
2021/07/03 09:09:55;;;;;;;164.18;54.28;;;21.90;69.40;;;;;;5024217;28;20025;-66
2021/07/03 09:12:35;;;;;;;145.98;48.95;;;22.00;68.80;;;;;;5025515;28;20028;-66
2021/07/03 09:15:14;;;;;;;134.98;47.13;;;22.10;67.80;;;;;;5029018;28;20059;-67
2021/07/03 09:17:47;;;;;;;134.57;48.10;;;22.00;68.10;;;;;;5016863;28;20083;-67
2021/07/03 09:20:13;;;;;;;96.85;37.13;;;22.00;68.60;;;;;;5022096;28;20045;-66
2021/07/03 09:22:39;;;;;;;71.10;29.48;;;22.00;68.30;;;;;;5020038;28;20029;-67
2021/07/03 09:25:18;;;;;;;67.68;29.50;;;21.90;69.10;;;;;;5026639;28;20923;-67
2021/07/03 09:27:44;;;;;;;84.60;33.85;;;21.80;69.30;;;;;;5039663;28;20090;-63
2021/07/03 09:30:10;;;;;;;95.80;33.40;;;21.80;69.50;;;;;;5047851;28;20016;-66
2021/07/03 09:32:35;;;;;;;82.32;31.90;;;21.90;69.60;;;;;;5045450;28;20143;-65
2021/07/03 09:35:08;;;;;;;78.70;26.83;;;22.00;69.80;;;;;;5039665;28;20100;-67
2021/07/03 09:37:35;;;;;;;69.18;27.92;;;22.00;69.10;;;;;;5017824;28;20026;-66
2021/07/03 09:40:08;;;;;;;63.85;24.05;;;22.00;69.00;;;;;;5020738;28;20022;-69
2021/07/03 09:42:37;;;;;;;62.05;24.70;;;22.00;68.90;;;;;;5027165;28;20083;-69
2021/07/03 09:45:05;;;;;;;55.30;25.23;;;22.00;68.90;;;;;;5030472;28;20372;-68
2021/07/03 09:47:31;;;;;;;57.50;25.35;;;22.00;68.80;;;;;;5032418;28;20033;-68
2021/07/03 09:50:12;;;;;;;42.17;20.25;;;22.10;68.60;;;;;;5033815;28;20446;-69
2021/07/03 09:52:38;;;;;;;39.95;18.48;;;22.50;67.80;;;;;;5033307;28;20332;-68
2021/07/03 09:55:06;;;;;;;47.72;19.75;;;22.80;65.90;;;;;;5031907;28;20392;-68
2021/07/03 09:57:40;;;;;;;54.47;22.40;;;23.00;65.10;;;;;;5033182;28;20096;-68
2021/07/03 10:00:09;;;;;;;39.97;18.75;;;23.00;65.40;;;;;;5033434;28;20092;-68
2021/07/03 10:02:36;;;;;;;43.72;18.35;;;22.90;65.40;;;;;;5032541;28;20712;-68
2021/07/03 10:05:03;;;;;;;32.72;16.90;;;22.70;65.90;;;;;;5032047;28;20026;-68
2021/07/03 10:07:38;;;;;;;35.47;16.52;;;22.70;66.30;;;;;;5032897;28;20040;-67
2021/07/03 10:10:09;;;;;;;33.33;16.15;;;22.90;65.90;;;;;;5032957;28;20017;-69
2021/07/03 10:12:39;;;;;;;37.65;16.52;;;22.90;66.00;;;;;;5033522;28;20021;-68
2021/07/03 10:15:05;;;;;;;31.63;14.48;;;22.90;65.80;;;;;;5033183;28;20537;-68
2021/07/03 10:17:34;;;;;;;32.55;14.23;;;22.90;65.90;;;;;;5032114;28;20044;-67
2021/07/03 10:20:00;;;;;;;25.52;13.75;;;22.90;66.00;;;;;;5033203;28;20101;-68
2021/07/03 10:22:31;;;;;;;26.63;13.10;;;22.90;65.30;;;;;;5032881;28;20017;-69
2021/07/03 10:25:08;;;;;;;23.98;13.30;;;23.00;65.10;;;;;;5032660;28;20017;-68
2021/07/03 10:27:34;;;;;;;30.90;13.38;;;23.00;65.20;;;;;;5032733;28;20021;-69
2021/07/03 10:30:04;;;;;;;27.90;13.70;;;23.00;65.20;;;;;;5032868;28;20402;-68
2021/07/03 10:32:35;;;;;;;24.42;12.25;;;22.90;65.40;;;;;;5032925;28;20225;-68
2021/07/03 10:35:08;;;;;;;20.58;11.98;;;22.80;66.00;;;;;;5032968;28;20021;-67
2021/07/03 10:37:34;;;;;;;20.30;11.35;;;22.80;66.30;;;;;;5032350;28;20029;-68
2021/07/03 10:40:01;;;;;;;25.48;12.13;;;22.80;66.10;;;;;;5032423;28;20025;-68
2021/07/03 10:42:29;;;;;;;26.13;12.25;;;22.70;66.40;;;;;;5032497;28;20017;-69
2021/07/03 10:45:05;;;;;;;28.05;11.60;;;22.80;66.30;;;;;;5032914;28;20025;-68
2021/07/03 10:47:33;;;;;;;21.52;10.57;;;22.70;66.40;;;;;;5032186;28;20029;-68
2021/07/03 10:49:58;;;;;;;21.25;10.48;;;22.60;66.80;;;;;;5032687;28;20041;-68
2021/07/03 10:52:24;;;;;;;19.17;11.43;;;22.60;66.60;;;;;;5031100;28;20111;-68
2021/07/03 10:55:00;;;;;;;19.23;10.75;;;22.60;66.40;;;;;;5031567;28;20116;-68
2021/07/03 10:57:26;;;;;;;18.35;9.73;;;22.60;66.80;;;;;;5013052;28;20368;-68
2021/07/03 11:00:01;;;;;;;18.70;9.65;;;22.70;66.60;;;;;;5013072;28;20022;-69
2021/07/03 11:02:31;;;;;;;19.80;10.93;;;22.70;66.50;;;;;;5012618;28;20018;-67
2021/07/03 11:05:01;;;;;;;18.05;9.63;;;22.70;66.50;;;;;;5012470;28;20117;-67
2021/07/03 11:07:31;;;;;;;17.77;10.02;;;22.70;66.70;;;;;;5010354;28;20065;-68
2021/07/03 11:10:12;;;;;;;18.97;10.30;;;22.80;66.50;;;;;;5012568;28;20080;-67
2021/07/03 11:12:56;;;;;;;17.33;9.35;;;22.80;66.70;;;;;;5011194;28;20121;-68
2021/07/03 11:15:28;;;;;;;19.98;9.85;;;22.80;66.60;;;;;;5011619;28;20507;-68
2021/07/03 11:18:00;;;;;;;16.85;8.60;;;22.80;66.40;;;;;;5012124;28;20026;-67
2021/07/03 11:20:30;;;;;;;16.23;8.52;;;22.70;66.50;;;;;;5012290;28;20026;-67
2021/07/03 11:22:57;;;;;;;16.63;8.55;;;22.80;66.50;;;;;;5011663;28;20061;-68
2021/07/03 11:25:32;;;;;;;17.15;8.80;;;22.80;66.60;;;;;;5010942;28;20029;-68
2021/07/03 11:28:20;;;;;;;15.05;8.77;;;22.70;66.90;;;;;;5010412;28;20025;-70
2021/07/03 11:30:55;;;;;;;14.13;8.48;;;22.70;67.10;;;;;;5010401;28;20021;-67
2021/07/03 11:33:21;;;;;;;16.45;8.63;;;22.80;65.80;;;;;;5010852;28;20021;-68
2021/07/03 11:35:49;;;;;;;15.80;8.35;;;22.80;65.80;;;;;;5011919;28;20133;-68
2021/07/03 11:38:17;;;;;;;11.85;8.10;;;22.70;66.00;;;;;;5011107;28;20112;-69
2021/07/03 11:40:43;;;;;;;12.20;7.03;;;22.80;65.70;;;;;;5011882;28;20036;-68
2021/07/03 11:43:09;;;;;;;14.63;8.15;;;22.70;65.80;;;;;;5010579;28;20018;-67
2021/07/03 11:45:39;;;;;;;13.05;7.78;;;22.70;65.60;;;;;;5011377;28;20069;-69
2021/07/03 11:48:06;;;;;;;15.05;8.15;;;22.70;65.90;;;;;;5010318;28;20297;-68
2021/07/03 11:50:40;;;;;;;14.13;7.55;;;22.60;66.00;;;;;;5011503;28;20025;-68
2021/07/03 11:53:09;;;;;;;12.20;7.32;;;22.60;65.80;;;;;;5011499;28;20030;-68
2021/07/03 11:55:37;;;;;;;14.02;7.55;;;22.60;65.90;;;;;;5012685;28;20028;-68
2021/07/03 11:58:03;;;;;;;13.07;6.95;;;22.60;66.00;;;;;;5026866;28;20065;-67
2021/07/03 12:00:32;;;;;;;13.52;6.68;;;22.70;66.30;;;;;;5017996;28;20025;-68
2021/07/03 12:02:58;;;;;;;14.73;7.07;;;22.80;66.50;;;;;;5016789;28;20097;-66
2021/07/03 12:05:30;;;;;;;14.82;6.88;;;22.70;67.00;;;;;;5027251;28;20478;-69
2021/07/03 12:08:02;;;;;;;12.70;6.20;;;22.60;66.50;;;;;;5036437;28;20017;-69
2021/07/03 12:10:47;;;;;;;9.63;6.45;;;22.70;66.30;;;;;;5028655;28;20022;-68
2021/07/03 12:13:46;;;;;;;11.43;6.63;;;22.80;66.30;;;;;;5034220;28;20045;-69
2021/07/03 12:16:12;;;;;;;;;;;22.70;66.60;;;;;;4994552;28;20446;-68
2021/07/03 12:18:58;;;;;;;14.82;6.55;;;22.70;66.90;;;;;;5011231;28;19928;-71
2021/07/03 12:21:24;;;;;;;10.38;5.88;;;22.70;66.70;;;;;;5016589;28;20400;-70
2021/07/03 12:24:03;;;;;;;11.30;6.28;;;22.70;66.70;;;;;;5018286;28;20097;-66
2021/07/03 12:26:38;;;;;;;13.60;6.10;;;22.60;66.80;;;;;;5025672;28;20028;-68
2021/07/03 12:29:05;;;;;;;17.60;6.10;;;22.60;67.00;;;;;;5027695;28;20800;-68
2021/07/03 12:31:42;;;;;;;12.48;5.82;;;22.80;66.90;;;;;;5030193;28;20053;-67
2021/07/03 12:34:08;;;;;;;11.18;5.97;;;22.80;66.50;;;;;;5029704;28;20112;-67